Time,TemperatureF,DewpointF,PressureIn,WindDirection,WindDirectionDegrees,WindSpeedMPH,WindSpeedGustMPH,Humidity,HourlyPrecipIn,Conditions,Clouds,dailyrainin,SoftwareType,DateUTC
2013-07-18 00:06:00,74.4,72.0,30.16,SSW,200,0.0,1.0,93,0.00,,,0.00,weatherlink.com 1.10,2013-07-18 04:06:00,
2013-07-18 00:21:00,74.2,72.0,30.16,SSW,200,0.0,1.0,94,0.00,,,0.00,weatherlink.com 1.10,2013-07-18 04:21:00,
2013-07-18 00:36:00,74.4,73.0,30.15,SSW,200,1.0,1.0,94,0.00,,,0.00,weatherlink.com 1.10,2013-07-18 04:36:00,
2013-07-18 00:51:00,74.1,72.0,30.15,SSW,200,0.0,1.0,93,0.00,,,0.00,weatherlink.com 1.10,2013-07-18 04:51:00,
2013-07-18 01:06:00,73.9,72.0,30.15,SSW,200,0.0,1.0,94,0.00,,,0.00,weatherlink.com 1.10,2013-07-18 05:06:00,
2013-07-18 01:21:00,73.8,72.0,30.15,SSW,200,0.0,0.0,94,0.00,,,0.00,weatherlink.com 1.10,2013-07-18 05:21:00,
2013-07-18 01:36:00,73.6,72.0,30.15,SSW,200,0.0,0.0,94,0.00,,,0.00,weatherlink.com 1.10,2013-07-18 05:36:00,
2013-07-18 01:51:00,73.6,72.0,30.15,SSW,200,0.0,1.0,95,0.00,,,0.00,weatherlink.com 1.10,2013-07-18 05:51:00,
2013-07-18 02:06:00,73.6,72.0,30.14,SSW,200,0.0,1.0,95,0.00,,,0.00,weatherlink.com 1.10,2013-07-18 06:06:00,
2013-07-18 02:21:00,73.4,72.0,30.14,SSW,200,0.0,0.0,95,0.00,,,0.00,weatherlink.com 1.10,2013-07-18 06:21:00,
2013-07-18 02:36:00,73.5,72.0,30.14,SSW,200,0.0,0.0,95,0.00,,,0.00,weatherlink.com 1.10,2013-07-18 06:36:00,
2013-07-18 02:51:00,73.7,72.0,30.14,SSE,158,1.0,1.0,95,0.00,,,0.00,weatherlink.com 1.10,2013-07-18 06:51:00,
2013-07-18 03:06:00,74.2,72.0,30.14,SSW,203,0.0,1.0,93,0.00,,,0.00,weatherlink.com 1.10,2013-07-18 07:06:00,
2013-07-18 03:21:00,74.6,72.0,30.13,SSE,168,1.0,2.0,91,0.00,,,0.00,weatherlink.com 1.10,2013-07-18 07:21:00,
2013-07-18 03:36:00,74.4,72.0,30.14,SSW,194,1.0,2.0,91,0.00,,,0.00,weatherlink.com 1.10,2013-07-18 07:36:00,
2013-07-18 03:51:00,74.5,72.0,30.14,SSE,167,2.0,2.0,91,0.00,,,0.00,weatherlink.com 1.10,2013-07-18 07:51:00,
2013-07-18 04:06:00,74.6,72.0,30.13,South,176,0.0,2.0,90,0.00,,,0.00,weatherlink.com 1.10,2013-07-18 08:06:00,
2013-07-18 04:21:00,74.0,71.0,30.13,South,188,0.0,1.0,91,0.00,,,0.00,weatherlink.com 1.10,2013-07-18 08:21:00,
2013-07-18 04:36:00,73.8,71.0,30.13,South,188,0.0,0.0,92,0.00,,,0.00,weatherlink.com 1.10,2013-07-18 08:36:00,
2013-07-18 04:51:00,74.4,72.0,30.13,SSE,161,1.0,2.0,91,0.00,,,0.00,weatherlink.com 1.10,2013-07-18 08:51:00,
2013-07-18 05:06:00,74.3,72.0,30.12,SSE,160,0.0,1.0,91,0.00,,,0.00,weatherlink.com 1.10,2013-07-18 09:06:00,
2013-07-18 05:21:00,74.2,72.0,30.12,SSE,156,0.0,1.0,91,0.00,,,0.00,weatherlink.com 1.10,2013-07-18 09:21:00,
2013-07-18 05:36:00,74.2,72.0,30.12,SSE,158,0.0,1.0,91,0.00,,,0.00,weatherlink.com 1.10,2013-07-18 09:36:00,
2013-07-18 05:51:00,73.8,71.0,30.12,SSE,158,0.0,0.0,91,0.00,,,0.00,weatherlink.com 1.10,2013-07-18 09:51:00,
2013-07-18 06:06:00,73.4,71.0,30.12,SSE,158,0.0,0.0,92,0.00,,,0.00,weatherlink.com 1.10,2013-07-18 10:06:00,
2013-07-18 06:22:00,73.2,71.0,30.12,SSE,158,0.0,1.0,93,0.00,,,0.00,weatherlink.com 1.10,2013-07-18 10:22:00,
2013-07-18 06:37:00,73.5,71.0,30.12,SSE,147,1.0,2.0,93,0.00,,,0.00,weatherlink.com 1.10,2013-07-18 10:37:00,
2013-07-18 06:52:00,73.7,71.0,30.12,SSE,158,1.0,2.0,92,0.00,,,0.00,weatherlink.com 1.10,2013-07-18 10:52:00,
2013-07-18 07:07:00,74.1,72.0,30.12,SSE,162,1.0,2.0,92,0.00,,,0.00,weatherlink.com 1.10,2013-07-18 11:07:00,
2013-07-18 07:22:00,74.7,72.0,30.12,South,176,1.0,1.0,91,0.00,,,0.00,weatherlink.com 1.10,2013-07-18 11:22:00,
2013-07-18 07:37:00,75.4,72.0,30.12,South,176,0.0,1.0,90,0.00,,,0.00,weatherlink.com 1.10,2013-07-18 11:37:00,
2013-07-18 07:52:00,76.3,73.0,30.12,South,176,0.0,1.0,90,0.00,,,0.00,weatherlink.com 1.10,2013-07-18 11:52:00,
2013-07-18 08:07:00,77.9,74.0,30.12,SW,226,2.0,2.0,87,0.00,,,0.00,weatherlink.com 1.10,2013-07-18 12:07:00,
2013-07-18 08:22:00,79.1,74.0,30.12,WSW,240,2.0,3.0,85,0.00,,,0.00,weatherlink.com 1.10,2013-07-18 12:22:00,
2013-07-18 08:37:00,80.0,74.0,30.12,WSW,246,2.0,3.0,83,0.00,,,0.00,weatherlink.com 1.10,2013-07-18 12:37:00,
2013-07-18 08:52:00,80.8,75.0,30.12,SSW,207,3.0,5.0,82,0.00,,,0.00,weatherlink.com 1.10,2013-07-18 12:52:00,
2013-07-18 09:07:00,81.4,75.0,30.12,West,276,3.0,4.0,81,0.00,,,0.00,weatherlink.com 1.10,2013-07-18 13:07:00,
2013-07-18 09:22:00,82.0,75.0,30.12,WSW,248,4.0,4.0,79,0.00,,,0.00,weatherlink.com 1.10,2013-07-18 13:22:00,
2013-07-18 09:37:00,82.6,75.0,30.12,WNW,282,2.0,6.0,78,0.00,,,0.00,weatherlink.com 1.10,2013-07-18 13:37:00,
2013-07-18 09:52:00,83.2,75.0,30.12,West,267,3.0,5.0,77,0.00,,,0.00,weatherlink.com 1.10,2013-07-18 13:52:00,
2013-07-18 10:07:00,84.0,76.0,30.12,WSW,250,1.0,5.0,76,0.00,,,0.00,weatherlink.com 1.10,2013-07-18 14:07:00,
2013-07-18 10:22:00,85.4,76.0,30.11,SW,219,3.0,6.0,73,0.00,,,0.00,weatherlink.com 1.10,2013-07-18 14:22:00,
2013-07-18 10:37:00,85.9,76.0,30.11,West,260,1.0,4.0,73,0.00,,,0.00,weatherlink.com 1.10,2013-07-18 14:37:00,
2013-07-18 10:52:00,86.5,77.0,30.11,WSW,246,1.0,6.0,72,0.00,,,0.00,weatherlink.com 1.10,2013-07-18 14:52:00,
2013-07-18 11:07:00,86.5,76.0,30.11,WSW,246,2.0,6.0,71,0.00,,,0.00,weatherlink.com 1.10,2013-07-18 15:07:00,
2013-07-18 11:22:00,86.8,76.0,30.11,WSW,239,5.0,8.0,71,0.00,,,0.00,weatherlink.com 1.10,2013-07-18 15:22:00,
2013-07-18 11:37:00,86.9,75.0,30.10,West,267,3.0,6.0,67,0.00,,,0.00,weatherlink.com 1.10,2013-07-18 15:37:00,
2013-07-18 11:52:00,87.8,76.0,30.10,SW,217,5.0,8.0,67,0.00,,,0.00,weatherlink.com 1.10,2013-07-18 15:52:00,
2013-07-18 12:08:00,87.9,75.0,30.10,WSW,253,2.0,6.0,66,0.00,,,0.00,weatherlink.com 1.10,2013-07-18 16:08:00,
2013-07-18 12:23:00,87.3,76.0,30.10,SW,232,5.0,8.0,70,0.00,,,0.00,weatherlink.com 1.10,2013-07-18 16:23:00,
2013-07-18 12:38:00,88.4,75.0,30.10,SSW,195,6.0,9.0,65,0.00,,,0.00,weatherlink.com 1.10,2013-07-18 16:38:00,
2013-07-18 12:53:00,89.4,74.0,30.10,SSW,213,12.0,12.0,61,0.00,,,0.00,weatherlink.com 1.10,2013-07-18 16:53:00,
2013-07-18 13:08:00,89.6,75.0,30.09,SSW,211,5.0,9.0,62,0.00,,,0.00,weatherlink.com 1.10,2013-07-18 17:08:00,
2013-07-18 13:23:00,90.1,74.0,30.08,SSW,212,7.0,11.0,60,0.00,,,0.00,weatherlink.com 1.10,2013-07-18 17:23:00,
2013-07-18 13:38:00,89.8,75.0,30.07,West,260,2.0,11.0,62,0.00,,,0.00,weatherlink.com 1.10,2013-07-18 17:38:00,
2013-07-18 13:53:00,90.5,74.0,30.07,South,173,4.0,11.0,59,0.00,,,0.00,weatherlink.com 1.10,2013-07-18 17:53:00,
2013-07-18 14:08:00,90.1,75.0,30.06,SW,227,5.0,13.0,62,0.00,,,0.00,weatherlink.com 1.10,2013-07-18 18:08:00,
2013-07-18 14:23:00,90.4,75.0,30.05,South,180,7.0,13.0,61,0.00,,,0.00,weatherlink.com 1.10,2013-07-18 18:23:00,
2013-07-18 14:38:00,90.9,76.0,30.05,WSW,250,2.0,9.0,61,0.00,,,0.00,weatherlink.com 1.10,2013-07-18 18:38:00,
2013-07-18 14:53:00,90.8,75.0,30.06,West,267,7.0,12.0,60,0.00,,,0.00,weatherlink.com 1.10,2013-07-18 18:53:00,
2013-07-18 15:08:00,90.6,75.0,30.05,SW,236,8.0,10.0,60,0.00,,,0.00,weatherlink.com 1.10,2013-07-18 19:08:00,
2013-07-18 15:23:00,91.2,75.0,30.05,SSE,162,6.0,12.0,60,0.00,,,0.00,weatherlink.com 1.10,2013-07-18 19:23:00,
2013-07-18 15:38:00,90.9,75.0,30.04,SW,236,7.0,12.0,60,0.00,,,0.00,weatherlink.com 1.10,2013-07-18 19:38:00,
2013-07-18 15:53:00,90.9,74.0,30.03,SW,236,7.0,8.0,58,0.00,,,0.00,weatherlink.com 1.10,2013-07-18 19:53:00,
2013-07-18 16:08:00,91.3,76.0,30.02,WSW,242,8.0,12.0,61,0.00,,,0.00,weatherlink.com 1.10,2013-07-18 20:08:00,
2013-07-18 16:23:00,91.1,73.0,30.02,SW,233,6.0,10.0,56,0.00,,,0.00,weatherlink.com 1.10,2013-07-18 20:23:00,
2013-07-18 16:38:00,90.8,74.0,30.01,South,176,5.0,12.0,58,0.00,,,0.00,weatherlink.com 1.10,2013-07-18 20:38:00,
2013-07-18 16:53:00,90.7,75.0,30.00,SSE,152,8.0,12.0,60,0.00,,,0.00,weatherlink.com 1.10,2013-07-18 20:53:00,
2013-07-18 17:08:00,90.7,74.0,30.00,South,179,5.0,10.0,59,0.00,,,0.00,weatherlink.com 1.10,2013-07-18 21:08:00,
2013-07-18 17:23:00,90.4,75.0,30.00,SW,222,4.0,11.0,60,0.00,,,0.00,weatherlink.com 1.10,2013-07-18 21:23:00,
2013-07-18 17:38:00,90.4,74.0,29.99,South,180,7.0,13.0,58,0.00,,,0.00,weatherlink.com 1.10,2013-07-18 21:38:00,
2013-07-18 17:53:00,90.4,73.0,29.98,SW,217,4.0,10.0,57,0.00,,,0.00,weatherlink.com 1.10,2013-07-18 21:53:00,
2013-07-18 18:08:00,90.4,74.0,29.98,SSW,212,5.0,8.0,59,0.00,,,0.00,weatherlink.com 1.10,2013-07-18 22:08:00,
2013-07-18 18:23:00,90.2,74.0,29.98,WSW,250,4.0,11.0,60,0.00,,,0.00,weatherlink.com 1.10,2013-07-18 22:23:00,
2013-07-18 18:38:00,90.1,73.0,29.97,SSW,210,6.0,9.0,58,0.00,,,0.00,weatherlink.com 1.10,2013-07-18 22:38:00,
2013-07-18 18:53:00,90.0,74.0,29.97,SW,225,6.0,7.0,59,0.00,,,0.00,weatherlink.com 1.10,2013-07-18 22:53:00,
2013-07-18 19:08:00,89.6,73.0,29.96,SSW,205,6.0,9.0,58,0.00,,,0.00,weatherlink.com 1.10,2013-07-18 23:08:00,
2013-07-18 19:23:00,89.6,74.0,29.96,SSW,207,3.0,7.0,61,0.00,,,0.00,weatherlink.com 1.10,2013-07-18 23:23:00,
2013-07-18 19:38:00,89.3,74.0,29.96,SSW,201,4.0,6.0,61,0.00,,,0.00,weatherlink.com 1.10,2013-07-18 23:38:00,
2013-07-18 19:53:00,88.6,74.0,29.95,SSW,211,4.0,7.0,62,0.00,,,0.00,weatherlink.com 1.10,2013-07-18 23:53:00,
2013-07-18 20:09:00,88.0,74.0,29.96,SW,220,3.0,5.0,63,0.00,,,0.00,weatherlink.com 1.10,2013-07-19 00:09:00,
2013-07-18 20:24:00,87.7,75.0,29.95,SSW,205,3.0,3.0,65,0.00,,,0.00,weatherlink.com 1.10,2013-07-19 00:24:00,
2013-07-18 20:39:00,86.9,75.0,29.95,South,173,2.0,3.0,67,0.00,,,0.00,weatherlink.com 1.10,2013-07-19 00:39:00,
2013-07-18 20:54:00,85.2,74.0,29.95,SSE,167,2.0,3.0,70,0.00,,,0.00,weatherlink.com 1.10,2013-07-19 00:54:00,
2013-07-18 21:09:00,84.2,74.0,29.95,South,190,2.0,3.0,72,0.00,,,0.00,weatherlink.com 1.10,2013-07-19 01:09:00,
2013-07-18 21:24:00,83.4,74.0,29.95,SSE,148,2.0,2.0,74,0.00,,,0.00,weatherlink.com 1.10,2013-07-19 01:24:00,
2013-07-18 21:39:00,82.4,75.0,29.96,SSW,208,1.0,2.0,77,0.00,,,0.00,weatherlink.com 1.10,2013-07-19 01:39:00,
2013-07-18 21:54:00,81.9,74.0,29.96,SSE,162,2.0,4.0,78,0.00,,,0.00,weatherlink.com 1.10,2013-07-19 01:54:00,
2013-07-18 22:24:00,81.4,74.0,29.97,SSE,163,2.0,4.0,79,0.00,,,0.00,weatherlink.com 1.10,2013-07-19 02:24:00,
2013-07-18 22:39:00,81.2,75.0,29.97,SSW,193,1.0,4.0,80,0.00,,,0.00,weatherlink.com 1.10,2013-07-19 02:39:00,
2013-07-18 22:54:00,80.7,74.0,29.96,SSW,203,2.0,3.0,81,0.00,,,0.00,weatherlink.com 1.10,2013-07-19 02:54:00,
2013-07-18 23:09:00,80.3,74.0,29.96,SSW,197,2.0,3.0,82,0.00,,,0.00,weatherlink.com 1.10,2013-07-19 03:09:00,
2013-07-18 23:24:00,80.3,74.0,29.96,SSW,203,1.0,3.0,82,0.00,,,0.00,weatherlink.com 1.10,2013-07-19 03:24:00,
2013-07-18 23:39:00,80.1,74.0,29.96,SSW,203,3.0,4.0,82,0.00,,,0.00,weatherlink.com 1.10,2013-07-19 03:39:00,
2013-07-18 23:54:00,79.9,74.0,29.96,South,184,4.0,4.0,83,0.00,,,0.00,weatherlink.com 1.10,2013-07-19 03:54:00,